Latest Coastal Weather Observations for Groote Eylandt Airport

IDD60701

Issued at 12:01 pm CST Thursday 11 February 2016 (issued every 10 minutes, with the page automatically refreshed every 10 minutes)

About coastal observations | Map of coastal stations | Coastal observations for NT | Marine services | Other Formats
Station Details ID: 014518 Name: GROOTE EYLANDT AIRPORT Lat: -13.97 Lon: 136.46 Height: 13.7 m
Data from the previous 72 hours. | See also: Recent months at Groote Eylandt Airport
Date/Time
CST
Temp

°C
Wind Pressure Rain
since 9am
mm
Weather Cloud Vis
km
Sea
Height
m
Swell
Dir
 
Speed
knots
Gust
knots
hPa Trend Height
m
Period
s
Dir
11/12:00pm 32.6 W 7 10 1005.5 - 0.0 - Partly cloudy 10 - - - -
11/11:30am 32.3 WSW 7 9 1005.9 - 0.0 - Partly cloudy 10 - - - -
11/11:00am 33.3 SW 5 8 1006.3 - 0.0 - Partly cloudy 10 - - - -
11/10:30am 32.4 SW 5 9 1006.7 - 0.0 - Partly cloudy 10 - - - -
11/10:00am 32.1 S 5 7 1006.9 - 0.0 - - 10 - - - -
11/09:30am 31.2 SSE 5 7 1007.0 - 0.0 - - 10 - - - -
11/09:00am 30.3 S 4 7 1006.9 - 0.8 - - 10 - - - -
11/08:30am 29.4 SSE 4 7 1006.8 - 0.8 - Partly cloudy 10 - - - -
11/08:00am 28.0 SW 4 6 1006.8 - 0.8 - Partly cloudy 10 - - - -
11/07:30am 27.7 E 2 4 1006.6 - 0.8 - Partly cloudy 10 - - - -
11/07:00am 26.2 SSE 3 4 1006.3 - 0.6 - Partly cloudy 10 - - - -
11/06:30am 25.9 CALM 0 0 1006.3 - 0.6 - - 10 - - - -
11/06:00am 25.6 CALM 0 4 1006.0 - 0.6 Rain Cloudy 10 - - - -
11/05:30am 25.7 SE 4 6 1005.7 - 0.6 - Partly cloudy 10 - - - -
11/05:00am 26.4 S 4 7 1005.7 - 0.0 - Partly cloudy 10 - - - -
11/04:30am 26.6 S 4 7 1005.7 - 0.0 - Partly cloudy 10 - - - -
11/04:00am 26.7 S 8 13 1005.8 - 0.0 - Partly cloudy 10 - - - -
11/03:30am 27.2 S 7 16 1005.7 - 0.0 - Partly cloudy 10 - - - -
11/03:00am 27.3 CALM 0 0 1005.2 - 0.0 - Mostly cloudy 10 - - - -
11/02:30am 27.6 SSE 2 3 1005.0 - 0.0 - - 10 - - - -
11/02:00am 27.8 SSE 3 4 1005.5 - 0.0 - - 10 - - - -
11/01:30am 27.5 SSE 3 4 1005.5 - 0.0 - - 10 - - - -
11/01:00am 27.6 CALM 0 0 1005.4 - 0.0 - - 10 - - - -
11/12:30am 27.6 ESE 1 4 1005.6 - 0.0 - - 10 - - - -
11/12:00am 27.7 CALM 0 0 1006.0 - 0.0 - Mostly clear 10 - - - -
 
Date/Time
CST
Temp

°C
Wind Pressure Rain
since 9am
mm
Weather Cloud Vis
km
Sea
Height
m
Swell
Dir
 
Speed
knots
Gust
knots
hPa Trend Height
m
Period
s
Dir
10/11:30pm 27.8 ESE 1 4 1006.7 - 0.0 - - 10 - - - -
10/11:00pm 28.3 CALM 0 0 1006.9 - 0.0 - - 10 - - - -
10/10:30pm 28.4 ESE 3 4 1006.9 - 0.0 - - 10 - - - -
10/10:00pm 29.1 E 4 6 1006.7 - 0.0 - - 10 - - - -
10/09:30pm 29.5 E 3 5 1006.2 - 0.0 - - 10 - - - -
10/09:00pm 29.4 ENE 4 6 1005.8 - 0.0 - Partly cloudy 10 - - - -
10/08:30pm 29.7 NE 4 6 1005.6 - 0.0 - - 10 - - - -
10/08:00pm 30.0 NNE 4 6 1005.3 - 0.0 - - 10 - - - -
10/07:30pm 30.6 NE 4 6 1004.9 - 0.0 - - 10 - - - -
10/07:00pm 31.1 NE 4 5 1004.8 - 0.0 - - 10 - - - -
10/06:30pm 31.7 NE 6 8 1004.8 - 0.0 - - 10 - - - -
10/06:00pm 31.8 E 7 9 1004.2 - 0.0 - Mostly clear 10 - - - -
10/05:30pm 32.7 E 8 14 1003.8 - 0.0 - - 10 - - - -
10/05:00pm 32.2 E 9 13 1003.2 - 0.0 - Partly cloudy 10 - - - -
10/04:30pm 29.8 NE 5 7 1003.1 - 0.0 - Partly cloudy 10 - - - -
10/04:00pm 30.1 E 13 17 1002.7 - 0.0 - Partly cloudy 10 - - - -
10/03:30pm 33.8 WNW 8 13 1002.6 - 0.0 - Partly cloudy 10 - - - -
10/03:00pm 33.1 NE 5 7 1003.0 - 0.0 - Mostly cloudy 10 - - - -
10/02:30pm 33.2 NE 6 11 1003.8 - 0.0 - Partly cloudy 10 - - - -
10/02:00pm 33.5 SSW 6 11 1004.0 - 0.0 - Partly cloudy 10 - - - -
10/01:30pm 34.3 SW 6 9 1004.4 - 0.0 - Partly cloudy 10 - - - -
10/01:00pm 34.2 WSW 7 11 1004.6 - 0.0 - Partly cloudy 10 - - - -
10/12:30pm 33.3 SW 7 12 1005.0 - 0.0 - Partly cloudy 10 - - - -
10/12:00pm 33.5 WSW 7 12 1005.5 - 0.0 - Cloudy 10 - - - -
10/11:30am 33.2 SW 6 11 1005.9 - 0.0 - Partly cloudy 10 - - - -
10/11:00am 33.1 WSW 7 12 1006.3 - 0.0 - Partly cloudy 10 - - - -
10/10:30am 32.4 SW 6 9 1006.6 - 0.0 - Partly cloudy 10 - - - -
10/10:00am 32.2 WSW 7 11 1006.9 - 0.0 - Partly cloudy 10 - - - -
10/09:30am 32.1 SW 5 9 1006.9 - 0.0 - Partly cloudy 10 - - - -
10/09:00am 31.4 WSW 7 12 1007.0 - 0.0 - - 10 - - - -
10/08:30am 30.9 W 6 9 1007.0 - 0.0 - Partly cloudy 10 - - - -
10/08:00am 30.5 SSE 1 3 1006.7 - 0.0 - - 10 - - - -
10/07:30am 28.7 CALM 0 0 1006.3 - 0.0 - - 10 - - - -
10/07:00am 26.8 CALM 0 0 1005.7 - 0.0 - - 10 - - - -
10/06:30am 26.2 CALM 0 0 1005.4 - 0.0 - - 10 - - - -
10/06:00am 26.1 CALM 0 0 1005.1 - 0.0 - - 10 - - - -
10/05:30am 26.0 E 1 3 1004.7 - 0.0 - - 10 - - - -
10/05:00am 26.3 ENE 2 4 1004.5 - 0.0 - - 10 - - - -
10/04:30am 26.5 CALM 0 0 1004.3 - 0.0 - - 10 - - - -
10/04:00am 26.5 NE 1 3 1004.3 - 0.0 - - 10 - - - -
10/03:30am 26.8 NE 1 4 1004.6 - 0.0 - - 10 - - - -
10/03:00am 26.9 E 3 4 1004.8 - 0.0 - - 10 - - - -
10/02:30am 26.9 CALM 0 0 1005.0 - 0.0 - - 10 - - - -
10/02:00am 27.2 CALM 0 0 1005.4 - 0.0 - - 10 - - - -
10/01:30am 27.1 CALM 0 0 1005.8 - 0.0 - - 10 - - - -
10/01:00am 27.2 CALM 0 0 1006.1 - 0.0 - - 10 - - - -
10/12:30am 27.6 E 2 4 1006.4 - 0.0 - - 10 - - - -
10/12:00am 27.8 E 3 5 1006.7 - 0.0 - - 10 - - - -
 
Date/Time
CST
Temp

°C
Wind Pressure Rain
since 9am
mm
Weather Cloud Vis
km
Sea
Height
m
Swell
Dir
 
Speed
knots
Gust
knots
hPa Trend Height
m
Period
s
Dir
09/11:30pm 28.3 ENE 3 4 1007.1 - 0.0 - - 10 - - - -
09/11:00pm 28.9 NNE 3 4 1007.4 - 0.0 - - 10 - - - -
09/10:30pm 29.1 NE 4 5 1007.4 - 0.0 - - 10 - - - -
09/10:00pm 29.1 ENE 5 7 1007.2 - 0.0 - - 10 - - - -
09/09:30pm 29.2 ENE 8 10 1006.6 - 0.0 - - 10 - - - -
09/09:00pm 29.4 ENE 5 6 1006.8 - 0.0 - - 10 - - - -
09/08:30pm 29.8 E 5 7 1006.6 - 0.0 - - 10 - - - -
09/08:00pm 30.1 E 5 8 1006.1 - 0.0 - - 10 - - - -
09/07:30pm 30.5 ENE 5 7 1005.5 - 0.0 - - 10 - - - -
09/07:00pm 31.1 E 5 7 1005.2 - 0.0 - - 10 - - - -
09/06:30pm 31.8 E 5 8 1005.0 - 0.0 - - 10 - - - -
09/06:00pm 32.1 E 7 10 1004.8 - 0.0 - - 10 - - - -
09/05:30pm 32.8 E 8 10 1004.2 - 0.0 - Partly cloudy 10 - - - -
09/05:00pm 33.9 SE 5 8 1004.4 - 0.0 - - 10 - - - -
09/04:30pm 33.5 ENE 8 12 1004.6 - 0.0 - Partly cloudy 10 - - - -
09/04:00pm 34.2 SW 5 9 1004.3 - 0.0 - Partly cloudy 10 - - - -
09/03:30pm 34.9 SSW 5 9 1004.4 - 0.0 - Partly cloudy 10 - - - -
09/03:00pm 35.2 WSW 6 11 1004.7 - 0.0 - - 10 - - - -
09/02:30pm 35.0 WSW 6 9 1005.1 - 0.0 - - 10 - - - -
09/02:00pm 34.6 W 8 11 1005.5 - 0.0 - - 10 - - - -
09/01:30pm 34.5 W 8 12 1005.9 - 0.0 - - 10 - - - -
09/01:00pm 33.7 WSW 7 9 1006.3 - 0.0 - - 10 - - - -
09/12:30pm 33.8 W 7 9 1006.7 - 0.0 - - 10 - - - -
09/12:00pm 33.7 WSW 5 8 1007.2 - 0.0 - - 10 - - - -
09/11:30am 32.9 SW 4 8 1007.6 - 0.0 - - 10 - - - -
09/11:00am 32.4 WNW 6 8 1007.9 - 0.0 - - 10 - - - -
09/10:30am 32.0 W 6 9 1008.3 - 0.0 - Partly cloudy 10 - - - -
09/10:00am 31.5 WNW 7 11 1008.5 - 0.0 - Partly cloudy 10 - - - -
09/09:30am 31.2 WNW 7 11 1008.5 - 0.0 - - 10 - - - -
09/09:00am 30.8 NW 7 9 1008.2 - 0.0 - - 10 - - - -
09/08:30am 30.2 NW 5 8 1007.9 - 0.0 - - 10 - - - -
09/08:00am 29.1 CALM 0 0 1007.8 - 0.0 - - 10 - - - -
09/07:30am 26.9 CALM 0 0 1007.5 - 0.0 - - 10 - - - -
09/07:00am 25.5 CALM 0 0 1007.1 - 0.0 - - 10 - - - -
09/06:30am 25.0 CALM 0 0 1006.6 - 0.0 - - 10 - - - -
09/06:00am 24.8 E 1 3 1006.4 - 0.0 - - 10 - - - -
09/05:30am 25.1 E 2 3 1006.1 - 0.0 - - 10 - - - -
09/05:00am 25.3 ESE 1 4 1005.8 - 0.0 - - 10 - - - -
09/04:30am 25.3 CALM 0 3 1005.5 - 0.0 - - 10 - - - -
09/04:00am 25.4 E 3 4 1005.7 - 0.0 - - 10 - - - -
09/03:30am 25.8 CALM 0 0 1005.8 - 0.0 - - 10 - - - -
09/03:00am 26.1 E 3 5 1005.8 - 0.0 - - 10 - - - -
09/02:30am 25.8 E 3 5 1006.1 - 0.0 - - 10 - - - -
09/02:00am 26.1 CALM 0 3 1006.4 - 0.0 - - 10 - - - -
09/01:30am 26.4 CALM 0 0 1006.7 - 0.0 - - 10 - - - -
09/01:00am 26.6 E 3 4 1006.9 - 0.0 - - 10 - - - -
09/12:30am 27.0 E 3 4 1007.3 - 0.0 - - 10 - - - -
09/12:00am 26.9 ENE 2 4 1007.6 - 0.0 - - 10 - - - -
 
Date/Time
CST
Temp

°C
Wind Pressure Rain
since 9am
mm
Weather Cloud Vis
km
Sea
Height
m
Swell
Dir
 
Speed
knots
Gust
knots
hPa Trend Height
m
Period
s
Dir
08/11:30pm 27.2 CALM 0 0 1008.1 - 0.0 - - 10 - - - -
08/11:00pm 27.6 CALM 0 0 1008.3 - 0.0 - - 10 - - - -
08/10:30pm 28.3 ENE 2 4 1008.2 - 0.0 - - 10 - - - -
08/10:00pm 28.4 ENE 5 7 1008.0 - 0.0 - - 10 - - - -
08/09:30pm 28.2 E 5 7 1007.8 - 0.0 - - 10 - - - -
08/09:00pm 29.0 NE 5 6 1007.6 - 0.0 - - 10 - - - -
08/08:30pm 29.2 NE 5 6 1007.3 - 0.0 - - 10 - - - -
08/08:00pm 29.8 ENE 4 5 1007.0 - 0.0 - - 10 - - - -
08/07:30pm 30.3 ESE 3 4 1006.4 - 0.0 - Partly cloudy 10 - - - -
08/07:00pm 30.8 SE 3 4 1006.0 - 0.0 - Cloudy 10 - - - -
08/06:30pm 31.7 ESE 4 6 1005.7 - 0.0 - Cloudy 10 - - - -
08/06:00pm 31.4 ESE 4 5 1005.6 - 0.0 - Cloudy 10 - - - -
08/05:30pm 31.2 SE 3 5 1005.4 - 0.0 - Cloudy 10 - - - -
08/05:00pm 31.5 ESE 4 6 1005.4 - 0.0 - Cloudy 10 - - - -
08/04:30pm 31.1 E 7 10 1005.4 - 0.0 - Cloudy 10 - - - -
08/04:00pm 29.9 E 10 13 1005.7 - 0.0 - Cloudy 10 - - - -
08/03:30pm 30.6 E 10 13 1005.8 - 0.0 - Cloudy 10 - - - -
08/03:00pm 32.5 ENE 9 12 1006.0 - 0.0 - Mostly cloudy 10 - - - -
08/02:30pm 34.1 WSW 8 11 1006.0 - 0.0 - Partly cloudy 10 - - - -
08/02:00pm 35.2 W 8 12 1006.2 - 0.0 - - 10 - - - -
08/01:30pm 34.7 W 7 11 1006.6 - 0.0 - - 10 - - - -
08/01:00pm 34.2 W 6 12 1007.1 - 0.0 - - 10 - - - -
08/12:30pm 34.6 W 6 9 1007.6 - 0.0 - - 10 - - - -

Other Formats:

Comma delimited format used in spreadsheet applications
http://www.bom.gov.au/fwo/IDD60701/IDD60701.94153.axf

JavaScript Object Notation format (JSON) in row-major order
http://www.bom.gov.au/fwo/IDD60701/IDD60701.94153.json